Time;durP1;ratioP1;P1;durP2;ratioP2;P2;SDS_P1;SDS_P2;PMS_P1;PMS_P2;Temp;Humidity;BMP_temperature;BMP_pressure;BME280_temperature;BME280_humidity;BME280_pressure;Samples;Min_cycle;Max_cycle;Signal;HPM_P1;HPM_P2
2022/08/24 00:01:19;;;;;;;1.23;1.13;;;;;;;20.86;75.89;101783.09;5055009;28;20037;-82
2022/08/24 00:03:46;;;;;;;1.33;1.13;;;;;;;20.86;75.78;101782.25;5055307;28;20052;-82
2022/08/24 00:06:16;;;;;;;1.67;1.20;;;;;;;20.84;76.00;101773.53;5053661;28;20386;-82
2022/08/24 00:08:42;;;;;;;1.63;1.42;;;;;;;20.82;75.84;101780.78;5052272;28;20029;-82
2022/08/24 00:11:08;;;;;;;3.20;1.20;;;;;;;20.81;76.32;101779.06;5055114;28;20296;-82
2022/08/24 00:13:34;;;;;;;1.65;1.20;;;;;;;20.79;75.97;101768.53;5053329;28;20275;-82
2022/08/24 00:16:00;;;;;;;3.28;1.30;;;;;;;20.79;76.03;101773.00;5017726;28;20240;-82
2022/08/24 00:18:25;;;;;;;1.52;1.40;;;;;;;20.78;76.20;101776.63;5040090;28;20033;-82
2022/08/24 00:20:51;;;;;;;1.83;1.30;;;;;;;20.76;76.16;101767.91;5053783;28;20045;-82
2022/08/24 00:23:17;;;;;;;1.45;1.17;;;;;;;20.76;76.15;101771.41;5054945;28;20061;-81
2022/08/24 00:25:42;;;;;;;1.23;1.13;;;;;;;20.75;76.43;101767.03;5052169;28;20454;-82
2022/08/24 00:28:08;;;;;;;1.73;1.30;;;;;;;20.74;76.41;101775.09;5036362;28;20306;-83
2022/08/24 00:30:34;;;;;;;1.58;1.30;;;;;;;20.72;76.27;101775.25;5037796;28;20356;-82
2022/08/24 00:33:00;;;;;;;1.40;1.30;;;;;;;20.71;76.41;101777.03;5036030;28;20052;-81
2022/08/24 00:35:26;;;;;;;1.33;1.23;;;;;;;20.70;76.35;101777.13;5034249;28;20362;-81
2022/08/24 00:37:53;;;;;;;1.30;1.20;;;;;;;20.68;76.84;101768.41;5050608;28;20041;-81
2022/08/24 00:40:34;;;;;;;1.95;1.45;;;;;;;20.67;76.42;101769.38;5043239;28;20041;-81
2022/08/24 00:43:02;;;;;;;2.25;1.27;;;;;;;20.67;76.68;101774.69;5033706;28;20021;-81
2022/08/24 00:45:30;;;;;;;1.40;1.30;;;;;;;20.64;76.62;101770.41;5034593;28;20043;-81
2022/08/24 00:48:05;;;;;;;1.95;1.25;;;;;;;20.64;76.57;101769.56;5035664;28;20045;-81
2022/08/24 00:50:36;;;;;;;3.15;1.20;;;;;;;20.64;76.82;101777.56;5040327;28;20052;-80
2022/08/24 00:53:07;;;;;;;1.27;1.15;;;;;;;20.61;76.63;101773.31;5054406;28;20247;-81
2022/08/24 00:55:37;;;;;;;1.38;1.25;;;;;;;20.59;76.74;101769.88;5056238;28;20020;-81
2022/08/24 00:58:11;;;;;;;1.67;1.40;;;;;;;20.59;76.89;101775.19;5040468;28;20041;-81
2022/08/24 01:00:42;;;;;;;1.65;1.42;;;;;;;20.58;77.08;101770.81;5036484;28;20288;-80
2022/08/24 01:03:08;;;;;;;1.70;1.55;;;;;;;20.58;76.98;101767.31;5035010;28;20083;-81
2022/08/24 01:05:36;;;;;;;1.83;1.40;;;;;;;20.56;76.99;101769.22;5039308;28;20045;-81
2022/08/24 01:08:03;;;;;;;;;;;;;;;20.55;76.94;101767.50;5056333;28;20286;-81
2022/08/24 01:10:33;;;;;;;1.95;1.20;;;;;;;20.53;77.22;101764.94;5056147;28;19916;-81
2022/08/24 01:13:02;;;;;;;1.27;1.10;;;;;;;20.51;77.11;101759.72;5055057;28;20102;-81
2022/08/24 01:15:48;;;;;;;2.03;1.33;;;;;;;20.50;77.35;101758.03;5053942;28;20355;-81
2022/08/24 01:21:16;;;;;;;1.73;0.95;;;;;;;20.48;77.38;101759.09;5037097;28;20351;-81
2022/08/24 01:23:46;;;;;;;1.40;1.30;;;;;;;20.48;77.28;101761.75;5034616;28;20260;-81
2022/08/24 01:26:19;;;;;;;1.25;1.15;;;;;;;20.45;77.67;101762.81;5034761;28;20033;-81
2022/08/24 01:28:49;;;;;;;1.40;1.00;;;;;;;20.46;77.64;101761.00;5036028;28;20051;-81
2022/08/24 01:31:17;;;;;;;1.20;1.10;;;;;;;20.44;77.94;101765.59;5038941;28;20060;-81
2022/08/24 01:33:43;;;;;;;4.03;1.48;;;;;;;20.44;77.83;101765.59;5055246;28;20064;-81
2022/08/24 01:36:21;;;;;;;1.13;1.00;;;;;;;20.42;77.58;101773.66;5035099;28;20064;-81
2022/08/24 01:38:48;;;;;;;3.10;1.05;;;;;;;20.42;77.97;101775.47;5035979;28;20041;-81
2022/08/24 01:41:13;;;;;;;3.25;1.10;;;;;;;20.41;77.78;101773.75;5034133;28;20240;-81
2022/08/24 01:43:39;;;;;;;1.92;1.30;;;;;;;20.41;77.74;101768.44;5019174;28;20068;-81
2022/08/24 01:46:05;;;;;;;1.60;1.50;;;;;;;20.39;77.81;101773.88;5036210;28;20037;-81
2022/08/24 01:48:30;;;;;;;1.20;1.10;;;;;;;20.39;78.06;101775.69;5054202;28;20319;-83
2022/08/24 01:50:56;;;;;;;1.00;0.93;;;;;;;20.37;78.07;101775.78;5055635;28;20120;-80
2022/08/24 01:53:22;;;;;;;1.33;1.00;;;;;;;20.38;78.08;101784.63;5021578;28;20220;-80
2022/08/24 01:55:47;;;;;;;1.30;1.00;;;;;;;20.38;78.20;101782.81;5059920;28;20362;-80
2022/08/24 01:58:13;;;;;;;1.38;1.27;;;;;;;20.36;77.94;101783.88;5041734;28;20045;-81
2022/08/24 02:00:39;;;;;;;2.90;1.10;;;;;;;20.36;78.13;101789.22;5052520;28;20233;-80
2022/08/24 02:03:05;;;;;;;2.72;1.10;;;;;;;20.35;78.19;101788.34;5039284;28;20033;-80
2022/08/24 02:05:30;;;;;;;1.85;1.23;;;;;;;20.35;78.17;101787.50;5038002;28;20325;-80
2022/08/24 02:07:57;;;;;;;1.33;0.95;;;;;;;20.34;78.42;101778.66;5039724;28;20045;-80
2022/08/24 02:10:23;;;;;;;1.13;1.00;;;;;;;20.34;78.12;101781.31;5039012;28;20240;-80
2022/08/24 02:12:56;;;;;;;1.20;1.10;;;;;;;20.32;78.17;101791.22;5057645;28;20033;-80
2022/08/24 02:15:31;;;;;;;1.30;0.93;;;;;;;20.31;78.15;101790.34;5058167;28;20033;-79
2022/08/24 02:17:57;;;;;;;1.63;1.30;;;;;;;20.31;78.44;101781.53;5038374;28;20132;-78
2022/08/24 02:20:22;;;;;;;1.52;1.20;;;;;;;20.29;78.54;101770.13;5037467;28;20029;-79
2022/08/24 02:22:49;;;;;;;1.80;0.98;;;;;;;20.29;78.46;101773.63;5021525;28;20053;-79
2022/08/24 02:25:15;;;;;;;1.33;1.10;;;;;;;20.28;78.58;101768.41;5038979;28;20033;-79
2022/08/24 02:27:41;;;;;;;1.40;1.17;;;;;;;20.27;78.28;101780.03;5056546;28;20379;-78
2022/08/24 02:30:07;;;;;;;2.22;1.40;;;;;;;20.26;78.52;101789.78;5055098;28;20044;-79
2022/08/24 02:32:33;;;;;;;1.02;1.00;;;;;;;20.25;78.43;101780.13;5021452;28;20248;-81
2022/08/24 02:34:58;;;;;;;3.08;1.20;;;;;;;20.24;78.72;101781.06;5038879;28;20091;-81
2022/08/24 02:37:23;;;;;;;1.17;1.08;;;;;;;20.24;78.70;101774.91;5021005;28;20148;-79
2022/08/24 02:39:51;;;;;;;1.65;1.38;;;;;;;20.23;78.74;101782.03;5037886;28;20100;-79
2022/08/24 02:42:16;;;;;;;1.00;1.00;;;;;;;20.22;78.80;101782.13;5037494;28;20079;-79
2022/08/24 02:44:42;;;;;;;1.70;1.00;;;;;;;20.20;78.93;101784.88;5038210;28;20045;-78
2022/08/24 02:47:08;;;;;;;1.95;1.00;;;;;;;20.21;78.75;101778.63;5017624;28;20068;-79
2022/08/24 02:49:34;;;;;;;1.80;1.40;;;;;;;20.20;78.61;101784.06;5017620;28;20347;-79
2022/08/24 02:51:59;;;;;;;1.30;1.10;;;;;;;20.19;78.69;101790.31;5017974;28;20041;-80
2022/08/24 02:54:25;;;;;;;0.90;0.90;;;;;;;20.16;78.79;101786.06;5017245;28;20347;-80
2022/08/24 02:56:50;;;;;;;1.05;1.00;;;;;;;20.16;78.76;101788.72;5032905;28;20041;-80
2022/08/24 02:59:17;;;;;;;1.00;0.90;;;;;;;20.14;78.88;101787.97;5032657;28;20275;-80
2022/08/24 03:01:43;;;;;;;1.65;1.00;;;;;;;20.14;78.83;101790.63;5020179;28;20133;-80
2022/08/24 03:04:09;;;;;;;2.08;0.90;;;;;;;20.11;78.67;101789.00;5056773;28;20472;-79
2022/08/24 03:06:35;;;;;;;1.00;1.00;;;;;;;20.11;78.87;101785.50;5052380;28;20384;-80
2022/08/24 03:09:00;;;;;;;1.13;1.00;;;;;;;20.09;78.89;101790.06;5037073;28;20033;-80
2022/08/24 03:11:26;;;;;;;1.30;1.00;;;;;;;20.09;78.84;101790.91;5037046;28;20347;-80
2022/08/24 03:13:51;;;;;;;1.27;1.00;;;;;;;20.08;78.98;101789.22;5020808;28;20041;-80
2022/08/24 03:16:17;;;;;;;3.53;1.30;;;;;;;20.07;78.99;101789.31;5030044;28;20037;-80
2022/08/24 03:18:42;;;;;;;1.15;1.05;;;;;;;20.06;78.93;101790.25;5039874;28;20049;-80
2022/08/24 03:21:08;;;;;;;2.45;1.17;;;;;;;20.05;79.05;101781.44;5037035;28;20037;-80
2022/08/24 03:23:34;;;;;;;0.95;0.95;;;;;;;20.04;79.09;101779.72;5056254;28;20063;-80
2022/08/24 03:26:00;;;;;;;1.27;1.10;;;;;;;20.04;79.04;101789.53;5056786;28;20071;-80
2022/08/24 03:28:26;;;;;;;2.55;1.10;;;;;;;20.02;79.04;101786.97;5054559;28;20228;-80
2022/08/24 03:30:52;;;;;;;2.25;1.30;;;;;;;20.02;79.13;101783.44;5023361;28;20343;-82
2022/08/24 03:33:18;;;;;;;1.23;1.17;;;;;;;20.01;79.29;101781.72;5057672;28;20033;-82
2022/08/24 03:35:44;;;;;;;1.92;1.10;;;;;;;19.99;78.96;101781.84;5056419;28;20059;-82
2022/08/24 03:38:09;;;;;;;3.80;1.20;;;;;;;19.99;79.13;101787.16;5043107;28;20037;-82
2022/08/24 03:40:35;;;;;;;2.00;1.38;;;;;;;19.97;79.19;101783.75;5036568;28;20364;-82
2022/08/24 03:43:01;;;;;;;2.67;1.10;;;;;;;19.97;79.05;101785.56;5036405;28;20273;-83
2022/08/24 03:45:27;;;;;;;3.42;1.02;;;;;;;19.96;79.30;101782.06;5036934;28;20064;-82
2022/08/24 03:47:53;;;;;;;1.80;1.13;;;;;;;19.96;79.29;101783.88;5037713;28;20097;-82
2022/08/24 03:50:19;;;;;;;1.42;1.00;;;;;;;19.95;79.27;101788.31;5037262;28;20324;-82
2022/08/24 03:52:45;;;;;;;1.52;0.85;;;;;;;19.93;79.26;101783.09;5019293;28;20037;-82
2022/08/24 03:55:11;;;;;;;0.90;0.88;;;;;;;19.93;79.33;101790.22;5045507;28;20045;-82
2022/08/24 03:57:36;;;;;;;0.80;0.80;;;;;;;19.92;79.32;101783.22;5019150;28;20025;-82
2022/08/24 04:00:04;;;;;;;4.75;1.20;;;;;;;19.91;79.75;101787.66;5038484;28;20045;-82
2022/08/24 04:02:30;;;;;;;2.08;1.20;;;;;;;19.90;79.40;101785.97;5037426;28;20029;-82
2022/08/24 04:04:55;;;;;;;2.50;1.00;;;;;;;19.89;79.41;101778.94;5043341;28;20024;-82
2022/08/24 04:07:21;;;;;;;1.10;1.00;;;;;;;19.89;79.57;101786.91;5055516;28;20067;-82
2022/08/24 04:09:46;;;;;;;1.98;0.93;;;;;;;19.88;79.54;101787.88;5054491;28;20033;-82
2022/08/24 04:12:11;;;;;;;1.10;1.00;;;;;;;19.88;79.44;101787.88;5054352;28;20155;-82
2022/08/24 04:14:38;;;;;;;2.60;1.23;;;;;;;19.87;79.74;101787.97;5056542;28;20320;-82
2022/08/24 04:17:04;;;;;;;1.42;1.17;;;;;;;19.86;79.70;101795.06;5055353;28;20040;-82
2022/08/24 04:19:30;;;;;;;1.20;1.10;;;;;;;19.86;79.70;101791.56;5038686;28;20332;-82
2022/08/24 04:21:57;;;;;;;1.55;1.17;;;;;;;19.86;79.88;101788.91;5044174;28;20287;-82
2022/08/24 04:24:24;;;;;;;1.60;1.30;;;;;;;19.84;79.90;101788.16;5034468;28;20079;-82
2022/08/24 04:26:49;;;;;;;3.60;1.40;;;;;;;19.84;79.66;101790.81;5049537;28;20344;-82
2022/08/24 04:29:18;;;;;;;1.40;1.30;;;;;;;19.84;79.54;101793.47;5036913;28;20087;-82
2022/08/24 04:31:43;;;;;;;3.10;1.50;;;;;;;19.85;79.85;101803.16;5044908;28;20033;-82
2022/08/24 04:34:11;;;;;;;1.50;1.40;;;;;;;19.83;79.83;101805.06;5053574;28;20118;-82
2022/08/24 04:36:39;;;;;;;1.70;1.60;;;;;;;19.82;79.88;101796.22;5054353;28;20212;-80
2022/08/24 04:39:04;;;;;;;1.60;1.50;;;;;;;19.82;79.90;101796.22;5053215;28;20079;-80
2022/08/24 04:41:30;;;;;;;1.85;1.52;;;;;;;19.81;79.91;101793.66;5053142;28;20033;-80
2022/08/24 04:43:55;;;;;;;1.90;1.70;;;;;;;19.80;79.89;101792.81;5037056;28;20037;-80
2022/08/24 04:46:21;;;;;;;2.58;1.63;;;;;;;19.81;79.99;101791.00;5033181;28;20034;-80
2022/08/24 04:48:48;;;;;;;1.73;1.63;;;;;;;19.80;80.06;101791.97;5051888;28;20080;-80
2022/08/24 04:51:16;;;;;;;2.85;1.67;;;;;;;19.80;79.91;101800.78;5054127;28;20047;-80
2022/08/24 04:53:43;;;;;;;1.63;1.52;;;;;;;19.79;79.90;101799.06;5051666;28;20347;-80
2022/08/24 04:56:11;;;;;;;2.08;1.60;;;;;;;19.80;80.05;101805.28;5052894;28;20029;-80
2022/08/24 04:58:38;;;;;;;5.00;2.00;;;;;;;19.79;80.04;101806.22;5051511;28;20036;-80
2022/08/24 05:01:13;;;;;;;2.67;2.08;;;;;;;19.78;80.21;101802.69;5054455;28;20041;-79
2022/08/24 05:03:38;;;;;;;3.72;1.73;;;;;;;19.79;80.22;101803.56;5052902;28;20067;-79
2022/08/24 05:06:04;;;;;;;2.97;1.58;;;;;;;19.79;80.57;101806.22;5036780;28;20118;-80
2022/08/24 05:08:30;;;;;;;3.05;1.80;;;;;;;19.77;80.24;101806.31;5055241;28;20393;-80
2022/08/24 05:10:56;;;;;;;2.97;1.55;;;;;;;19.79;80.22;101808.88;5054022;28;20045;-80
2022/08/24 05:13:22;;;;;;;1.77;1.67;;;;;;;19.77;80.16;101808.97;5054870;28;20396;-80
2022/08/24 05:15:48;;;;;;;1.88;1.75;;;;;;;19.77;80.18;101811.63;5041493;28;20083;-80
2022/08/24 05:18:15;;;;;;;4.40;1.60;;;;;;;19.78;79.91;101809.84;5033496;28;20267;-80
2022/08/24 05:20:44;;;;;;;1.70;1.60;;;;;;;19.78;79.79;101823.97;5040798;28;20040;-80
2022/08/24 05:23:10;;;;;;;1.60;1.50;;;;;;;19.78;79.87;101815.16;5052458;28;20374;-80
2022/08/24 05:25:36;;;;;;;1.42;1.33;;;;;;;19.78;79.48;101817.81;5051593;28;20227;-80
2022/08/24 05:28:02;;;;;;;3.35;1.70;;;;;;;19.78;79.42;101818.66;5036159;28;20044;-80
2022/08/24 05:30:27;;;;;;;2.85;1.60;;;;;;;19.78;79.31;101820.47;5054461;28;20029;-80
2022/08/24 05:32:53;;;;;;;3.88;1.60;;;;;;;19.79;79.31;101827.47;5036629;28;20247;-79
2022/08/24 05:35:19;;;;;;;1.88;1.50;;;;;;;19.79;79.14;101827.47;5051771;28;20044;-80
2022/08/24 05:37:44;;;;;;;1.88;1.45;;;;;;;19.79;79.17;101822.16;5054426;28;20271;-80
2022/08/24 05:40:12;;;;;;;1.50;1.40;;;;;;;19.79;79.13;101820.34;5054580;28;20335;-80
2022/08/24 05:42:39;;;;;;;2.93;1.37;;;;;;;19.80;79.03;101823.88;5037925;28;20087;-80
2022/08/24 05:45:05;;;;;;;2.88;1.63;;;;;;;19.80;78.97;101822.06;5033741;28;20283;-80
2022/08/24 05:47:33;;;;;;;5.20;1.60;;;;;;;19.80;78.95;101822.06;5053351;28;20105;-80
2022/08/24 05:49:59;;;;;;;2.15;1.55;;;;;;;19.80;78.95;101816.75;5054398;28;20224;-80
2022/08/24 05:52:25;;;;;;;3.42;1.52;;;;;;;19.80;78.94;101819.41;5053738;28;20044;-80
2022/08/24 05:54:52;;;;;;;3.65;1.52;;;;;;;19.81;78.93;101814.94;5053234;28;20140;-80
2022/08/24 05:57:17;;;;;;;1.75;1.48;;;;;;;19.81;79.07;101814.94;5042401;28;20083;-80
2022/08/24 05:59:43;;;;;;;1.65;1.55;;;;;;;19.82;78.97;101827.28;5052859;28;20041;-80
2022/08/24 06:02:08;;;;;;;1.63;1.52;;;;;;;19.82;78.97;101829.94;5053940;28;20056;-80
2022/08/24 06:04:36;;;;;;;1.95;1.60;;;;;;;19.82;78.92;101827.28;5036120;28;20056;-80
2022/08/24 06:07:09;;;;;;;1.52;1.40;;;;;;;19.81;79.08;101821.13;5052645;28;20224;-80
2022/08/24 06:09:35;;;;;;;2.35;1.30;;;;;;;19.82;78.93;101824.63;5052654;28;20466;-80
2022/08/24 06:12:01;;;;;;;1.70;1.40;;;;;;;19.83;78.90;101823.66;5026760;28;20042;-80
2022/08/24 06:14:26;;;;;;;1.45;1.30;;;;;;;19.82;78.88;101825.47;5035082;28;20530;-80
2022/08/24 06:16:52;;;;;;;1.58;1.48;;;;;;;19.83;79.01;101823.66;5032598;28;20040;-80
2022/08/24 06:19:19;;;;;;;1.40;1.30;;;;;;;19.84;78.99;101828.88;5032398;28;20053;-80
2022/08/24 06:21:47;;;;;;;2.22;1.40;;;;;;;19.83;78.90;101828.97;5029696;28;20021;-80
2022/08/24 06:24:14;;;;;;;1.55;1.45;;;;;;;19.84;79.08;101823.56;5033422;28;20276;-80
2022/08/24 06:29:27;;;;;;;1.75;1.65;;;;;;;19.86;79.71;101829.63;5033127;28;20060;-80
2022/08/24 06:31:54;;;;;;;2.08;1.98;;;;;;;19.88;79.76;101834.84;5010199;28;20243;-80
2022/08/24 06:34:21;;;;;;;2.30;2.10;;;;;;;19.90;80.04;101832.94;5027871;28;20080;-80
2022/08/24 06:36:46;;;;;;;2.58;2.05;;;;;;;19.91;80.11;101830.19;5031945;28;20041;-80
2022/08/24 06:39:12;;;;;;;2.67;1.92;;;;;;;19.92;79.73;101829.25;5033347;28;20097;-80
2022/08/24 06:41:39;;;;;;;4.13;2.78;;;;;;;19.94;80.27;101832.66;5035517;28;20448;-80
2022/08/24 06:44:05;;;;;;;2.20;2.00;;;;;;;19.96;80.11;101831.72;5025760;28;20064;-80
2022/08/24 06:46:36;;;;;;;2.35;2.15;;;;;;;19.97;79.95;101834.25;5035749;28;20382;-84
2022/08/24 06:49:03;;;;;;;2.88;2.58;;;;;;;19.99;80.42;101836.81;5017889;28;20045;-80
2022/08/24 06:51:29;;;;;;;3.30;2.80;;;;;;;20.01;80.49;101841.09;5033601;28;20087;-80
2022/08/24 06:53:57;;;;;;;3.10;2.60;;;;;;;20.03;80.66;101840.97;5032192;28;20041;-80
2022/08/24 06:56:23;;;;;;;;;;;;;;;20.05;80.73;101845.25;5033899;28;20976;-80
2022/08/24 06:58:48;;;;;;;2.25;2.08;;;;;;;20.07;79.72;101839.84;5032481;28;19967;-81
2022/08/24 07:01:20;;;;;;;4.15;2.60;;;;;;;20.08;78.93;101838.88;5031433;28;20110;-80
2022/08/24 07:03:46;;;;;;;2.47;2.28;;;;;;;20.09;78.46;101841.44;5029798;28;20025;-81
2022/08/24 07:06:13;;;;;;;2.40;2.20;;;;;;;20.12;78.69;101840.41;5035209;28;20083;-80
2022/08/24 07:08:41;;;;;;;3.30;2.25;;;;;;;20.16;79.25;101843.72;5026170;28;20033;-80
2022/08/24 07:11:07;;;;;;;3.45;2.75;;;;;;;20.19;79.82;101846.16;5032530;28;20052;-80
2022/08/24 07:13:33;;;;;;;5.72;3.58;;;;;;;20.21;80.90;101841.59;5007714;28;20402;-80
2022/08/24 07:15:59;;;;;;;5.25;2.70;;;;;;;20.24;81.43;101841.41;5003791;28;20038;-80
2022/08/24 07:18:25;;;;;;;4.00;3.03;;;;;;;20.27;80.95;101838.53;5029348;28;20049;-80
2022/08/24 07:20:50;;;;;;;3.58;3.15;;;;;;;20.31;81.27;101840.03;5038698;28;20109;-80
2022/08/24 07:23:17;;;;;;;3.22;2.92;;;;;;;20.35;80.98;101848.66;5033757;28;20052;-80
2022/08/24 07:25:45;;;;;;;2.78;2.58;;;;;;;20.39;81.50;101853.69;5031304;28;20064;-81
2022/08/24 07:28:11;;;;;;;3.78;2.88;;;;;;;20.43;81.81;101849.88;5028683;28;20045;-80
2022/08/24 07:30:38;;;;;;;2.60;2.40;;;;;;;20.46;81.89;101854.97;5016909;28;20363;-80
2022/08/24 07:33:03;;;;;;;3.13;2.38;;;;;;;20.51;81.73;101862.66;5018580;28;20272;-80
2022/08/24 07:35:33;;;;;;;2.85;2.50;;;;;;;20.53;81.64;101861.59;5029593;28;20033;-80
2022/08/24 07:37:59;;;;;;;2.45;2.25;;;;;;;20.59;81.86;101859.47;5028762;28;20057;-81
2022/08/24 07:40:27;;;;;;;2.10;1.90;;;;;;;20.63;81.90;101861.88;5017010;28;20341;-80
2022/08/24 07:42:55;;;;;;;2.22;2.03;;;;;;;20.68;81.34;101864.22;5018990;28;20044;-80
2022/08/24 07:45:21;;;;;;;2.95;2.35;;;;;;;20.70;80.27;101857.84;5021688;28;20336;-80
2022/08/24 07:47:48;;;;;;;2.85;2.13;;;;;;;20.74;80.02;101866.47;5034146;28;20037;-81
2022/08/24 07:50:14;;;;;;;3.20;2.10;;;;;;;20.78;80.27;101867.97;5031173;28;20037;-81
2022/08/24 07:52:40;;;;;;;1.88;1.70;;;;;;;20.83;80.59;101863.19;5030446;28;20112;-81
2022/08/24 07:55:06;;;;;;;1.73;1.63;;;;;;;20.86;80.54;101867.44;5026457;28;20061;-81
2022/08/24 07:57:32;;;;;;;1.70;1.60;;;;;;;20.89;80.64;101870.75;5035437;28;20039;-81
2022/08/24 07:59:58;;;;;;;1.65;1.55;;;;;;;20.93;80.69;101871.41;5032199;28;20391;-81
2022/08/24 08:02:24;;;;;;;2.28;2.00;;;;;;;20.96;81.18;101871.19;5029953;28;20408;-81
2022/08/24 08:04:53;;;;;;;2.70;2.03;;;;;;;20.99;81.40;101871.00;5033385;28;20037;-81
2022/08/24 08:07:18;;;;;;;1.50;1.40;;;;;;;21.03;80.96;101866.31;5035753;28;20356;-81
2022/08/24 08:16:27;;;;;;;3.53;2.10;;;;;;;21.16;81.41;101880.47;5026632;28;20225;-80
2022/08/24 08:18:53;;;;;;;2.45;2.25;;;;;;;21.19;81.17;101882.94;5013430;28;20321;-80
2022/08/24 08:24:15;;;;;;;2.70;1.75;;;;;;;21.25;81.17;101886.97;5023391;28;20095;-80
2022/08/24 08:26:45;;;;;;;1.30;1.20;;;;;;;21.28;81.17;101884.09;5024910;28;20060;-80
2022/08/24 08:29:12;;;;;;;1.98;1.60;;;;;;;21.30;80.69;101884.81;5016894;28;20038;-80
2022/08/24 08:31:38;;;;;;;2.30;1.15;;;;;;;21.33;80.34;101887.28;5027655;28;20063;-80
2022/08/24 08:34:04;;;;;;;2.40;1.60;;;;;;;21.36;80.15;101887.09;5018778;28;20075;-80
2022/08/24 08:36:30;;;;;;;2.60;1.52;;;;;;;21.38;80.55;101890.50;5025434;28;20045;-80
2022/08/24 08:38:56;;;;;;;1.33;1.23;;;;;;;21.41;80.41;101884.09;5032838;28;20041;-80
2022/08/24 08:42:13;;;;;;;1.20;1.10;;;;;;;21.45;79.56;101880.28;5028293;28;20037;-80
2022/08/24 08:45:00;;;;;;;1.20;1.10;;;;;;;21.50;79.89;101893.28;5026655;28;20363;-80
2022/08/24 08:47:43;;;;;;;3.13;1.88;;;;;;;21.53;80.15;101890.41;5041628;28;20040;-80
2022/08/24 08:50:22;;;;;;;1.20;1.10;;;;;;;21.57;80.01;101889.22;5016077;28;20333;-80
2022/08/24 08:53:15;;;;;;;4.03;1.48;;;;;;;21.58;79.08;101891.78;5033588;28;20293;-80
2022/08/24 08:56:13;;;;;;;1.63;1.33;;;;;;;21.64;79.75;101895.81;5032754;28;20142;-80
2022/08/24 08:59:02;;;;;;;1.20;1.10;;;;;;;21.71;80.29;101902.44;5017712;28;20037;-80
2022/08/24 09:01:52;;;;;;;2.40;1.33;;;;;;;21.77;80.27;101899.31;5011840;28;20036;-80
2022/08/24 09:04:26;;;;;;;5.10;1.05;;;;;;;21.81;80.14;101899.94;5021479;28;20038;-81
2022/08/24 09:07:30;;;;;;;1.05;0.90;;;;;;;21.84;79.75;101899.75;5024084;28;20109;-80
2022/08/24 09:10:26;;;;;;;0.82;0.82;;;;;;;21.89;79.63;101897.59;5030270;28;20041;-81
2022/08/24 09:13:15;;;;;;;0.85;0.80;;;;;;;21.94;79.14;101898.13;5029089;28;20310;-80
2022/08/24 09:16:37;;;;;;;0.52;0.52;;;;;;;21.99;78.81;101895.09;5031630;28;20065;-81
2022/08/24 09:19:20;;;;;;;1.00;0.90;;;;;;;22.05;78.45;101905.34;5021409;28;20032;-81
2022/08/24 09:21:46;;;;;;;0.93;0.60;;;;;;;22.10;78.71;101897.84;5049203;28;20240;-81
2022/08/24 09:24:20;;;;;;;1.67;0.95;;;;;;;22.16;78.19;101896.56;5026655;28;20228;-80
2022/08/24 09:27:16;;;;;;;0.95;0.70;;;;;;;22.24;78.18;101894.19;5036339;28;20295;-80
2022/08/24 09:29:53;;;;;;;0.77;0.77;;;;;;;22.32;78.01;101894.50;5017388;28;20083;-80
2022/08/24 09:32:54;;;;;;;1.08;0.80;;;;;;;22.39;77.65;101900.22;5032100;28;20320;-80
2022/08/24 09:35:42;;;;;;;0.75;0.70;;;;;;;22.42;76.93;101905.34;5016440;28;20053;-80
2022/08/24 09:38:26;;;;;;;0.93;0.90;;;;;;;22.49;77.64;101908.41;5037195;28;20107;-80
2022/08/24 09:40:59;;;;;;;1.05;0.98;;;;;;;22.56;78.05;101902.50;5024742;28;20061;-81
2022/08/24 09:44:02;;;;;;;1.10;1.00;;;;;;;22.69;78.47;101902.44;5022627;28;20210;-80
2022/08/24 09:47:21;;;;;;;0.95;0.90;;;;;;;22.79;77.81;101902.56;5034678;28;20037;-80
2022/08/24 09:50:02;;;;;;;1.20;0.77;;;;;;;22.88;76.89;101903.69;5029695;28;20043;-80
2022/08/24 09:52:55;;;;;;;1.67;0.98;;;;;;;22.97;76.84;101903.84;5026281;28;20244;-80
2022/08/24 09:55:49;;;;;;;1.08;1.00;;;;;;;23.06;76.43;101901.47;5028990;28;20332;-81
2022/08/24 09:58:36;;;;;;;1.23;0.90;;;;;;;23.13;76.05;101897.34;5021740;28;20227;-80
2022/08/24 10:01:38;;;;;;;1.05;1.02;;;;;;;23.17;75.80;101893.47;5024892;28;20041;-80
2022/08/24 10:04:17;;;;;;;1.98;1.10;;;;;;;23.21;75.19;101888.75;5032077;28;20344;-80
2022/08/24 10:07:06;;;;;;;1.30;0.80;;;;;;;23.26;74.90;101895.44;5030494;28;20033;-81
2022/08/24 10:09:50;;;;;;;1.30;1.20;;;;;;;23.33;75.00;101893.13;5027670;28;20033;-80
2022/08/24 10:12:15;;;;;;;0.90;0.90;;;;;;;23.35;73.86;101889.34;5029804;28;20240;-81
2022/08/24 10:15:00;;;;;;;1.10;1.00;;;;;;;23.37;73.61;101884.75;5032996;28;20029;-81
2022/08/24 10:17:35;;;;;;;2.25;1.17;;;;;;;23.37;73.77;101887.41;5032338;28;20291;-81
2022/08/24 10:20:24;;;;;;;2.20;1.33;;;;;;;23.37;73.82;101889.25;5030619;28;20269;-80
2022/08/24 10:23:15;;;;;;;1.23;1.00;;;;;;;23.38;74.05;101882.94;5029328;28;20416;-80
2022/08/24 10:26:08;;;;;;;1.13;0.95;;;;;;;23.39;74.05;101889.97;5036928;28;20036;-80
2022/08/24 10:29:02;;;;;;;3.67;1.10;;;;;;;23.40;73.93;101886.34;5028078;28;20235;-81
2022/08/24 10:31:42;;;;;;;3.33;1.20;;;;;;;23.41;73.78;101881.84;5030939;28;20083;-80
2022/08/24 10:34:39;;;;;;;2.28;1.05;;;;;;;23.41;73.48;101889.84;5029153;28;20100;-81
2022/08/24 10:37:23;;;;;;;1.58;1.30;;;;;;;23.40;73.12;101888.16;5028257;28;20395;-81
2022/08/24 10:40:26;;;;;;;3.75;0.93;;;;;;;23.40;73.62;101888.16;5028957;28;20055;-81
2022/08/24 10:43:35;;;;;;;1.65;1.05;;;;;;;23.40;73.65;101888.16;5033399;28;20394;-81
2022/08/24 10:46:25;;;;;;;2.35;1.30;;;;;;;23.40;74.04;101888.16;5032860;28;20034;-81
2022/08/24 10:49:17;;;;;;;1.45;1.35;;;;;;;23.44;73.97;101879.78;5029077;28;20060;-80
2022/08/24 10:52:06;;;;;;;2.22;1.10;;;;;;;23.48;75.09;101881.22;5033762;28;20048;-81
2022/08/24 10:54:34;;;;;;;1.55;1.23;;;;;;;23.53;74.65;101879.03;5027313;28;20029;-81
2022/08/24 10:57:08;;;;;;;1.10;1.10;;;;;;;23.60;74.55;101875.91;5010772;28;20040;-80
2022/08/24 10:59:59;;;;;;;1.17;1.08;;;;;;;23.67;74.27;101877.94;5025926;28;20401;-81
2022/08/24 11:02:33;;;;;;;1.30;1.30;;;;;;;23.73;73.61;101879.28;5023570;28;20035;-81
2022/08/24 11:05:01;;;;;;;4.93;1.40;;;;;;;23.79;73.47;101865.41;5031703;28;20033;-81
2022/08/24 11:07:27;;;;;;;1.90;1.35;;;;;;;23.85;73.15;101870.31;5028618;28;20060;-81
2022/08/24 11:10:00;;;;;;;1.33;1.23;;;;;;;23.93;72.89;101859.81;5028612;28;20048;-81
2022/08/24 11:12:41;;;;;;;3.55;1.42;;;;;;;24.01;72.29;101866.38;5033846;28;20033;-81
2022/08/24 11:15:22;;;;;;;1.40;1.30;;;;;;;24.05;71.72;101867.81;5033996;28;20090;-81
2022/08/24 11:17:59;;;;;;;1.40;1.30;;;;;;;24.10;70.92;101862.94;5034564;28;20358;-81
2022/08/24 11:20:39;;;;;;;1.27;1.23;;;;;;;24.12;69.79;101871.69;5031892;28;20893;-81
2022/08/24 11:23:19;;;;;;;1.48;1.38;;;;;;;24.13;70.29;101865.38;5032944;28;20052;-81
2022/08/24 11:26:25;;;;;;;1.60;1.50;;;;;;;24.18;69.13;101865.84;5029867;28;20349;-81
2022/08/24 11:28:56;;;;;;;1.40;1.30;;;;;;;24.22;69.16;101859.25;5031620;28;20122;-81
2022/08/24 11:31:33;;;;;;;1.58;1.35;;;;;;;24.32;70.50;101864.69;5025658;28;20232;-81
2022/08/24 11:34:03;;;;;;;1.40;1.30;;;;;;;24.37;69.38;101867.00;5028363;28;20042;-81
2022/08/24 11:36:34;;;;;;;2.42;1.00;;;;;;;24.39;67.92;101855.16;5032463;28;20049;-81
2022/08/24 11:39:10;;;;;;;2.15;1.45;;;;;;;24.44;68.98;101868.19;5025795;28;20242;-81
2022/08/24 11:41:46;;;;;;;3.42;1.40;;;;;;;24.48;69.45;101853.56;5030125;28;20231;-81
2022/08/24 11:44:24;;;;;;;1.10;1.10;;;;;;;24.52;67.70;101853.22;5025786;28;20025;-81
2022/08/24 11:47:32;;;;;;;2.25;1.10;;;;;;;24.62;68.01;101855.97;5028914;28;20411;-81
2022/08/24 11:50:24;;;;;;;1.30;1.20;;;;;;;24.68;67.81;101866.13;5032291;28;20041;-81
2022/08/24 11:53:35;;;;;;;1.45;1.10;;;;;;;24.69;68.97;101858.97;5039314;28;20052;-81
2022/08/24 11:56:24;;;;;;;5.18;1.10;;;;;;;24.70;68.26;101861.53;5028260;28;20224;-81
2022/08/24 11:59:11;;;;;;;1.45;1.20;;;;;;;24.69;67.22;101854.47;5036550;28;20464;-81
2022/08/24 12:01:50;;;;;;;2.03;1.00;;;;;;;24.74;68.13;101861.25;5023252;28;20044;-81
2022/08/24 12:05:02;;;;;;;3.08;1.23;;;;;;;24.76;68.49;101857.47;5022243;28;20034;-81